sensor_id;sensor_type;location;lat;lon;timestamp;pressure;altitude;pressure_sealevel;temperature;humidity
52957;BME280;38819;42.692;23.342;2023-05-07T00:01:42;95519.53;;;13.09;68.53
52957;BME280;38819;42.692;23.342;2023-05-07T00:04:08;95519.13;;;13.02;68.70
52957;BME280;38819;42.692;23.342;2023-05-07T00:06:33;95528.16;;;12.97;68.76
52957;BME280;38819;42.692;23.342;2023-05-07T00:08:59;95527.75;;;13.04;68.70
52957;BME280;38819;42.692;23.342;2023-05-07T00:11:26;95528.75;;;13.08;68.76
52957;BME280;38819;42.692;23.342;2023-05-07T00:13:52;95522.03;;;13.05;68.98
52957;BME280;38819;42.692;23.342;2023-05-07T00:16:17;95524.00;;;13.00;69.18
52957;BME280;38819;42.692;23.342;2023-05-07T00:18:43;95523.63;;;12.92;69.37
52957;BME280;38819;42.692;23.342;2023-05-07T00:21:08;95522.91;;;12.87;69.79
52957;BME280;38819;42.692;23.342;2023-05-07T00:23:33;95513.25;;;12.81;70.01
52957;BME280;38819;42.692;23.342;2023-05-07T00:25:59;95517.88;;;12.80;70.14
52957;BME280;38819;42.692;23.342;2023-05-07T00:28:24;95507.25;;;12.70;70.77
52957;BME280;38819;42.692;23.342;2023-05-07T00:30:50;95507.34;;;12.65;70.52
52957;BME280;38819;42.692;23.342;2023-05-07T00:33:15;95514.72;;;12.59;70.64
52957;BME280;38819;42.692;23.342;2023-05-07T00:35:42;95515.63;;;12.54;70.83
52957;BME280;38819;42.692;23.342;2023-05-07T00:38:07;95530.41;;;12.62;70.58
52957;BME280;38819;42.692;23.342;2023-05-07T00:40:33;95520.94;;;12.59;70.43
52957;BME280;38819;42.692;23.342;2023-05-07T00:42:58;95524.88;;;12.67;69.98
52957;BME280;38819;42.692;23.342;2023-05-07T00:45:28;95539.00;;;12.50;70.91
52957;BME280;38819;42.692;23.342;2023-05-07T00:47:55;95530.28;;;12.53;70.51
52957;BME280;38819;42.692;23.342;2023-05-07T00:50:21;95534.00;;;12.57;70.50
52957;BME280;38819;42.692;23.342;2023-05-07T00:52:47;95529.78;;;12.51;70.68
52957;BME280;38819;42.692;23.342;2023-05-07T00:55:13;95526.16;;;12.56;70.68
52957;BME280;38819;42.692;23.342;2023-05-07T00:57:40;95534.06;;;12.52;70.84
52957;BME280;38819;42.692;23.342;2023-05-07T01:00:07;95538.88;;;12.41;71.10
52957;BME280;38819;42.692;23.342;2023-05-07T01:02:34;95528.25;;;12.45;70.99
52957;BME280;38819;42.692;23.342;2023-05-07T01:05:00;95529.31;;;12.30;71.48
52957;BME280;38819;42.692;23.342;2023-05-07T01:07:26;95537.41;;;12.30;71.22
52957;BME280;38819;42.692;23.342;2023-05-07T01:09:52;95537.22;;;12.27;71.17
52957;BME280;38819;42.692;23.342;2023-05-07T01:12:18;95543.84;;;12.34;71.12
52957;BME280;38819;42.692;23.342;2023-05-07T01:14:43;95529.47;;;12.20;71.42
52957;BME280;38819;42.692;23.342;2023-05-07T01:17:09;95530.84;;;12.17;71.32
52957;BME280;38819;42.692;23.342;2023-05-07T01:19:34;95543.22;;;12.23;71.03
52957;BME280;38819;42.692;23.342;2023-05-07T01:22:08;95528.50;;;12.30;70.71
52957;BME280;38819;42.692;23.342;2023-05-07T01:24:35;95530.69;;;12.28;70.60
52957;BME280;38819;42.692;23.342;2023-05-07T01:27:01;95534.66;;;12.16;71.19
52957;BME280;38819;42.692;23.342;2023-05-07T01:29:27;95529.47;;;12.20;71.09
52957;BME280;38819;42.692;23.342;2023-05-07T01:31:54;95527.19;;;12.27;70.92
52957;BME280;38819;42.692;23.342;2023-05-07T01:34:22;95527.06;;;12.18;71.19
52957;BME280;38819;42.692;23.342;2023-05-07T01:36:48;95528.31;;;12.07;71.44
52957;BME280;38819;42.692;23.342;2023-05-07T01:39:14;95528.72;;;12.14;71.43
52957;BME280;38819;42.692;23.342;2023-05-07T01:41:41;95525.00;;;12.10;71.27
52957;BME280;38819;42.692;23.342;2023-05-07T01:44:08;95524.59;;;12.03;71.58
52957;BME280;38819;42.692;23.342;2023-05-07T01:46:35;95525.16;;;12.00;71.25
52957;BME280;38819;42.692;23.342;2023-05-07T01:49:00;95519.47;;;12.01;71.42
52957;BME280;38819;42.692;23.342;2023-05-07T01:51:26;95510.75;;;12.04;70.34
52957;BME280;38819;42.692;23.342;2023-05-07T01:53:52;95503.06;;;11.93;69.63
52957;BME280;38819;42.692;23.342;2023-05-07T01:56:18;95509.78;;;11.95;69.52
52957;BME280;38819;42.692;23.342;2023-05-07T01:58:44;95500.09;;;11.89;69.78
52957;BME280;38819;42.692;23.342;2023-05-07T02:01:12;95504.09;;;11.97;69.45
52957;BME280;38819;42.692;23.342;2023-05-07T02:03:37;95500.31;;;11.98;69.85
52957;BME280;38819;42.692;23.342;2023-05-07T02:06:03;95494.56;;;11.99;69.73
52957;BME280;38819;42.692;23.342;2023-05-07T02:08:28;95492.97;;;11.98;69.43
52957;BME280;38819;42.692;23.342;2023-05-07T02:10:54;95493.78;;;11.99;69.31
52957;BME280;38819;42.692;23.342;2023-05-07T02:13:19;95486.91;;;12.07;68.89
52957;BME280;38819;42.692;23.342;2023-05-07T02:15:47;95477.66;;;12.08;68.74
52957;BME280;38819;42.692;23.342;2023-05-07T02:18:16;95490.81;;;12.14;68.80
52957;BME280;38819;42.692;23.342;2023-05-07T02:20:41;95488.56;;;12.21;68.62
52957;BME280;38819;42.692;23.342;2023-05-07T02:23:06;95490.34;;;12.26;68.30
52957;BME280;38819;42.692;23.342;2023-05-07T02:25:32;95482.31;;;12.21;68.49
52957;BME280;38819;42.692;23.342;2023-05-07T02:27:57;95484.44;;;12.24;68.69
52957;BME280;38819;42.692;23.342;2023-05-07T02:30:23;95485.56;;;12.23;68.98
52957;BME280;38819;42.692;23.342;2023-05-07T02:32:48;95483.34;;;12.25;68.89
52957;BME280;38819;42.692;23.342;2023-05-07T02:35:15;95490.06;;;12.28;69.08
52957;BME280;38819;42.692;23.342;2023-05-07T02:37:40;95483.16;;;12.35;68.97
52957;BME280;38819;42.692;23.342;2023-05-07T02:40:06;95489.38;;;12.36;69.14
52957;BME280;38819;42.692;23.342;2023-05-07T02:42:31;95483.75;;;12.32;69.44
52957;BME280;38819;42.692;23.342;2023-05-07T02:44:57;95482.88;;;12.37;69.77
52957;BME280;38819;42.692;23.342;2023-05-07T02:47:22;95476.66;;;12.36;69.89
52957;BME280;38819;42.692;23.342;2023-05-07T02:49:48;95480.47;;;12.49;69.88
52957;BME280;38819;42.692;23.342;2023-05-07T02:52:13;95482.19;;;12.45;70.27
52957;BME280;38819;42.692;23.342;2023-05-07T02:54:38;95482.69;;;12.47;70.13
52957;BME280;38819;42.692;23.342;2023-05-07T02:57:04;95487.22;;;12.52;70.51
52957;BME280;38819;42.692;23.342;2023-05-07T02:59:29;95485.00;;;12.54;70.62
52957;BME280;38819;42.692;23.342;2023-05-07T03:01:55;95495.34;;;12.52;70.84
52957;BME280;38819;42.692;23.342;2023-05-07T03:04:20;95489.63;;;12.53;70.57
52957;BME280;38819;42.692;23.342;2023-05-07T03:06:46;95488.22;;;12.56;70.66
52957;BME280;38819;42.692;23.342;2023-05-07T03:09:11;95495.16;;;12.62;70.68
52957;BME280;38819;42.692;23.342;2023-05-07T03:11:37;95499.59;;;12.58;70.60
52957;BME280;38819;42.692;23.342;2023-05-07T03:14:02;95508.59;;;12.53;71.08
52957;BME280;38819;42.692;23.342;2023-05-07T03:16:28;95510.94;;;12.60;70.48
52957;BME280;38819;42.692;23.342;2023-05-07T03:18:53;95508.50;;;12.58;70.28
52957;BME280;38819;42.692;23.342;2023-05-07T03:21:18;95517.16;;;12.60;70.04
52957;BME280;38819;42.692;23.342;2023-05-07T03:23:44;95512.44;;;12.66;69.87
52957;BME280;38819;42.692;23.342;2023-05-07T03:26:10;95509.81;;;12.61;69.78
52957;BME280;38819;42.692;23.342;2023-05-07T03:28:36;95511.72;;;12.60;69.92
52957;BME280;38819;42.692;23.342;2023-05-07T03:31:01;95518.75;;;12.62;70.07
52957;BME280;38819;42.692;23.342;2023-05-07T03:33:27;95512.81;;;12.59;70.07
52957;BME280;38819;42.692;23.342;2023-05-07T03:35:52;95516.81;;;12.48;70.56
52957;BME280;38819;42.692;23.342;2023-05-07T03:38:18;95518.31;;;12.54;70.51
52957;BME280;38819;42.692;23.342;2023-05-07T03:40:43;95525.84;;;12.57;70.72
52957;BME280;38819;42.692;23.342;2023-05-07T03:43:09;95529.06;;;12.59;70.62
52957;BME280;38819;42.692;23.342;2023-05-07T03:45:34;95527.78;;;12.57;70.96
52957;BME280;38819;42.692;23.342;2023-05-07T03:48:00;95524.13;;;12.48;71.23
52957;BME280;38819;42.692;23.342;2023-05-07T03:50:25;95522.16;;;12.53;71.28
52957;BME280;38819;42.692;23.342;2023-05-07T03:52:51;95524.47;;;12.60;71.31
52957;BME280;38819;42.692;23.342;2023-05-07T03:55:16;95528.91;;;12.70;70.97
52957;BME280;38819;42.692;23.342;2023-05-07T03:57:42;95535.34;;;12.74;70.93
52957;BME280;38819;42.692;23.342;2023-05-07T04:00:08;95539.38;;;12.76;70.89
52957;BME280;38819;42.692;23.342;2023-05-07T04:02:33;95537.75;;;12.75;70.67
52957;BME280;38819;42.692;23.342;2023-05-07T04:04:59;95543.38;;;12.79;70.80
52957;BME280;38819;42.692;23.342;2023-05-07T04:07:24;95544.16;;;12.79;70.79
52957;BME280;38819;42.692;23.342;2023-05-07T04:09:50;95552.16;;;12.90;70.63
52957;BME280;38819;42.692;23.342;2023-05-07T04:12:15;95552.94;;;12.90;70.24
52957;BME280;38819;42.692;23.342;2023-05-07T04:14:41;95552.84;;;12.95;70.04
52957;BME280;38819;42.692;23.342;2023-05-07T04:17:06;95558.25;;;12.95;70.37
52957;BME280;38819;42.692;23.342;2023-05-07T04:19:34;95571.72;;;12.87;69.62
52957;BME280;38819;42.692;23.342;2023-05-07T04:22:00;95569.19;;;12.76;69.13
52957;BME280;38819;42.692;23.342;2023-05-07T04:24:26;95575.59;;;12.81;68.33
52957;BME280;38819;42.692;23.342;2023-05-07T04:26:51;95574.44;;;12.87;67.82
52957;BME280;38819;42.692;23.342;2023-05-07T04:29:17;95588.78;;;12.87;67.65
52957;BME280;38819;42.692;23.342;2023-05-07T04:31:43;95581.53;;;12.83;67.61
52957;BME280;38819;42.692;23.342;2023-05-07T04:34:10;95582.06;;;12.85;67.08
52957;BME280;38819;42.692;23.342;2023-05-07T04:36:37;95582.16;;;12.93;66.78
52957;BME280;38819;42.692;23.342;2023-05-07T04:39:03;95592.03;;;13.03;66.40
52957;BME280;38819;42.692;23.342;2023-05-07T04:41:28;95593.41;;;13.01;66.58
52957;BME280;38819;42.692;23.342;2023-05-07T04:43:54;95595.75;;;13.07;66.26
52957;BME280;38819;42.692;23.342;2023-05-07T04:46:19;95588.53;;;13.16;65.97
52957;BME280;38819;42.692;23.342;2023-05-07T04:48:45;95588.00;;;13.14;66.02
52957;BME280;38819;42.692;23.342;2023-05-07T04:51:10;95578.47;;;13.17;66.01
52957;BME280;38819;42.692;23.342;2023-05-07T04:53:37;95583.00;;;13.22;66.05
52957;BME280;38819;42.692;23.342;2023-05-07T04:56:02;95584.00;;;13.26;66.05
52957;BME280;38819;42.692;23.342;2023-05-07T04:58:28;95584.44;;;13.33;66.14
52957;BME280;38819;42.692;23.342;2023-05-07T05:00:57;95594.75;;;13.31;65.82
52957;BME280;38819;42.692;23.342;2023-05-07T05:03:22;95585.75;;;13.36;65.45
52957;BME280;38819;42.692;23.342;2023-05-07T05:05:50;95587.19;;;13.47;65.42
52957;BME280;38819;42.692;23.342;2023-05-07T05:08:17;95582.75;;;13.51;65.15
52957;BME280;38819;42.692;23.342;2023-05-07T05:10:42;95579.63;;;13.58;65.23
52957;BME280;38819;42.692;23.342;2023-05-07T05:13:09;95580.94;;;13.60;65.31
52957;BME280;38819;42.692;23.342;2023-05-07T05:15:34;95576.69;;;13.68;65.14
52957;BME280;38819;42.692;23.342;2023-05-07T05:18:00;95578.19;;;13.74;65.44
52957;BME280;38819;42.692;23.342;2023-05-07T05:20:26;95579.31;;;13.73;65.57
52957;BME280;38819;42.692;23.342;2023-05-07T05:22:51;95587.38;;;13.78;65.52
52957;BME280;38819;42.692;23.342;2023-05-07T05:25:17;95580.59;;;13.89;65.51
52957;BME280;38819;42.692;23.342;2023-05-07T05:27:42;95581.50;;;13.99;65.49
52957;BME280;38819;42.692;23.342;2023-05-07T05:30:08;95583.19;;;14.08;65.51
52957;BME280;38819;42.692;23.342;2023-05-07T05:32:33;95585.59;;;14.10;65.47
52957;BME280;38819;42.692;23.342;2023-05-07T05:34:59;95591.69;;;14.16;65.43
52957;BME280;38819;42.692;23.342;2023-05-07T05:37:25;95587.97;;;14.25;65.17
52957;BME280;38819;42.692;23.342;2023-05-07T05:39:50;95583.59;;;14.38;64.97
52957;BME280;38819;42.692;23.342;2023-05-07T05:42:16;95575.63;;;14.42;64.83
52957;BME280;38819;42.692;23.342;2023-05-07T05:44:41;95587.66;;;14.50;64.80
52957;BME280;38819;42.692;23.342;2023-05-07T05:47:06;95588.97;;;14.52;65.12
52957;BME280;38819;42.692;23.342;2023-05-07T05:49:32;95582.53;;;14.62;65.04
52957;BME280;38819;42.692;23.342;2023-05-07T05:51:57;95578.75;;;14.72;64.98
52957;BME280;38819;42.692;23.342;2023-05-07T05:54:23;95575.09;;;14.76;64.94
52957;BME280;38819;42.692;23.342;2023-05-07T05:56:48;95582.66;;;14.88;64.68
52957;BME280;38819;42.692;23.342;2023-05-07T05:59:14;95585.66;;;14.78;64.73
52957;BME280;38819;42.692;23.342;2023-05-07T06:01:40;95586.91;;;14.72;65.56
52957;BME280;38819;42.692;23.342;2023-05-07T06:04:05;95583.75;;;14.78;65.05
52957;BME280;38819;42.692;23.342;2023-05-07T06:06:31;95589.00;;;14.75;64.75
52957;BME280;38819;42.692;23.342;2023-05-07T06:08:57;95590.47;;;14.81;64.72
52957;BME280;38819;42.692;23.342;2023-05-07T06:11:22;95589.41;;;14.91;64.73
52957;BME280;38819;42.692;23.342;2023-05-07T06:13:48;95579.47;;;14.86;65.32
52957;BME280;38819;42.692;23.342;2023-05-07T06:16:14;95582.53;;;14.93;65.32
52957;BME280;38819;42.692;23.342;2023-05-07T06:18:40;95579.28;;;15.05;65.11
52957;BME280;38819;42.692;23.342;2023-05-07T06:21:05;95578.44;;;15.05;64.89
52957;BME280;38819;42.692;23.342;2023-05-07T06:23:31;95577.81;;;15.08;64.60
52957;BME280;38819;42.692;23.342;2023-05-07T06:25:56;95572.13;;;15.18;64.10
52957;BME280;38819;42.692;23.342;2023-05-07T06:28:22;95575.75;;;15.13;64.54
52957;BME280;38819;42.692;23.342;2023-05-07T06:30:47;95568.25;;;15.10;64.63
52957;BME280;38819;42.692;23.342;2023-05-07T06:33:14;95571.19;;;15.23;64.35
52957;BME280;38819;42.692;23.342;2023-05-07T06:35:40;95564.66;;;15.01;64.60
52957;BME280;38819;42.692;23.342;2023-05-07T06:38:05;95568.88;;;15.07;64.75
52957;BME280;38819;42.692;23.342;2023-05-07T06:40:31;95573.50;;;15.07;65.12
52957;BME280;38819;42.692;23.342;2023-05-07T06:42:56;95563.06;;;15.00;64.75
52957;BME280;38819;42.692;23.342;2023-05-07T06:45:21;95565.66;;;15.05;64.47
52957;BME280;38819;42.692;23.342;2023-05-07T06:47:47;95555.31;;;15.16;64.13
52957;BME280;38819;42.692;23.342;2023-05-07T06:50:13;95546.13;;;15.03;64.82
52957;BME280;38819;42.692;23.342;2023-05-07T06:52:38;95550.66;;;15.16;64.63
52957;BME280;38819;42.692;23.342;2023-05-07T06:55:16;95544.28;;;15.21;64.39
52957;BME280;38819;42.692;23.342;2023-05-07T06:57:41;95551.22;;;15.36;63.86
52957;BME280;38819;42.692;23.342;2023-05-07T07:00:07;95543.38;;;15.34;64.07
52957;BME280;38819;42.692;23.342;2023-05-07T07:02:34;95544.47;;;15.33;64.00
52957;BME280;38819;42.692;23.342;2023-05-07T07:04:59;95554.53;;;15.24;64.26
52957;BME280;38819;42.692;23.342;2023-05-07T07:07:24;95547.47;;;15.23;63.80
52957;BME280;38819;42.692;23.342;2023-05-07T07:09:50;95551.88;;;15.42;63.54
52957;BME280;38819;42.692;23.342;2023-05-07T07:12:16;95550.47;;;15.44;62.93
52957;BME280;38819;42.692;23.342;2023-05-07T07:14:42;95551.56;;;15.43;62.49
52957;BME280;38819;42.692;23.342;2023-05-07T07:17:07;95546.44;;;15.42;62.89
52957;BME280;38819;42.692;23.342;2023-05-07T07:19:32;95547.09;;;15.38;62.94
52957;BME280;38819;42.692;23.342;2023-05-07T07:21:58;95539.25;;;15.37;63.07
52957;BME280;38819;42.692;23.342;2023-05-07T07:24:23;95545.16;;;15.39;63.24
52957;BME280;38819;42.692;23.342;2023-05-07T07:26:49;95546.28;;;15.47;63.08
52957;BME280;38819;42.692;23.342;2023-05-07T07:29:14;95538.19;;;15.64;62.55
52957;BME280;38819;42.692;23.342;2023-05-07T07:31:40;95527.50;;;15.77;62.20
52957;BME280;38819;42.692;23.342;2023-05-07T07:34:05;95537.28;;;15.86;62.17
52957;BME280;38819;42.692;23.342;2023-05-07T07:36:31;95535.50;;;15.82;62.02
52957;BME280;38819;42.692;23.342;2023-05-07T07:38:56;95540.31;;;15.85;62.15
52957;BME280;38819;42.692;23.342;2023-05-07T07:41:21;95544.97;;;15.84;61.58
52957;BME280;38819;42.692;23.342;2023-05-07T07:43:47;95544.03;;;15.98;61.41
52957;BME280;38819;42.692;23.342;2023-05-07T07:46:12;95547.88;;;15.97;61.17
52957;BME280;38819;42.692;23.342;2023-05-07T07:48:38;95545.31;;;16.00;60.38
52957;BME280;38819;42.692;23.342;2023-05-07T07:51:03;95552.53;;;15.96;60.96
52957;BME280;38819;42.692;23.342;2023-05-07T07:53:29;95557.66;;;15.98;60.56
52957;BME280;38819;42.692;23.342;2023-05-07T07:55:55;95550.13;;;16.03;60.25
52957;BME280;38819;42.692;23.342;2023-05-07T07:58:20;95551.09;;;16.16;59.47
52957;BME280;38819;42.692;23.342;2023-05-07T08:00:47;95559.13;;;16.21;59.13
52957;BME280;38819;42.692;23.342;2023-05-07T08:03:12;95539.88;;;16.35;58.55
52957;BME280;38819;42.692;23.342;2023-05-07T08:05:38;95543.56;;;16.48;58.35
52957;BME280;38819;42.692;23.342;2023-05-07T08:08:04;95547.91;;;16.49;59.43
52957;BME280;38819;42.692;23.342;2023-05-07T08:10:29;95542.13;;;16.51;59.46
52957;BME280;38819;42.692;23.342;2023-05-07T08:12:55;95546.75;;;16.59;59.09
52957;BME280;38819;42.692;23.342;2023-05-07T08:15:20;95535.38;;;16.57;58.46
52957;BME280;38819;42.692;23.342;2023-05-07T08:17:45;95535.84;;;16.67;58.34
52957;BME280;38819;42.692;23.342;2023-05-07T08:20:11;95533.56;;;16.78;58.11
52957;BME280;38819;42.692;23.342;2023-05-07T08:22:36;95535.03;;;16.84;57.80
52957;BME280;38819;42.692;23.342;2023-05-07T08:25:02;95534.72;;;16.86;57.75
52957;BME280;38819;42.692;23.342;2023-05-07T08:27:28;95539.00;;;17.04;57.20
52957;BME280;38819;42.692;23.342;2023-05-07T08:29:54;95531.63;;;16.96;57.19
52957;BME280;38819;42.692;23.342;2023-05-07T08:32:20;95533.22;;;17.06;56.52
52957;BME280;38819;42.692;23.342;2023-05-07T08:34:45;95532.84;;;17.16;55.67
52957;BME280;38819;42.692;23.342;2023-05-07T08:37:11;95524.16;;;17.23;55.64
52957;BME280;38819;42.692;23.342;2023-05-07T08:39:36;95519.94;;;17.34;56.16
52957;BME280;38819;42.692;23.342;2023-05-07T08:42:03;95515.69;;;17.46;55.46
52957;BME280;38819;42.692;23.342;2023-05-07T08:44:33;95516.31;;;17.51;54.94
52957;BME280;38819;42.692;23.342;2023-05-07T08:47:00;95514.13;;;17.66;53.86
52957;BME280;38819;42.692;23.342;2023-05-07T08:49:27;95510.59;;;17.65;52.34
52957;BME280;38819;42.692;23.342;2023-05-07T08:51:53;95514.66;;;17.59;52.02
52957;BME280;38819;42.692;23.342;2023-05-07T08:54:20;95513.06;;;17.58;52.25
52957;BME280;38819;42.692;23.342;2023-05-07T08:56:45;95514.28;;;17.69;52.40
52957;BME280;38819;42.692;23.342;2023-05-07T08:59:11;95507.63;;;17.79;51.83
52957;BME280;38819;42.692;23.342;2023-05-07T09:01:36;95508.56;;;17.83;51.86
52957;BME280;38819;42.692;23.342;2023-05-07T09:04:03;95501.00;;;17.89;51.05
52957;BME280;38819;42.692;23.342;2023-05-07T09:06:29;95498.22;;;17.98;51.11
52957;BME280;38819;42.692;23.342;2023-05-07T09:08:55;95491.88;;;18.06;51.06
52957;BME280;38819;42.692;23.342;2023-05-07T09:11:24;95491.50;;;18.16;50.80
52957;BME280;38819;42.692;23.342;2023-05-07T09:13:54;95489.88;;;18.15;49.94
52957;BME280;38819;42.692;23.342;2023-05-07T09:16:21;95489.34;;;18.22;50.02
52957;BME280;38819;42.692;23.342;2023-05-07T09:18:46;95477.00;;;18.15;50.03
52957;BME280;38819;42.692;23.342;2023-05-07T09:21:17;95483.91;;;18.34;48.51
52957;BME280;38819;42.692;23.342;2023-05-07T09:23:42;95479.31;;;18.26;48.05
52957;BME280;38819;42.692;23.342;2023-05-07T09:26:08;95478.66;;;18.29;49.31
52957;BME280;38819;42.692;23.342;2023-05-07T09:28:42;95482.00;;;18.35;48.43
52957;BME280;38819;42.692;23.342;2023-05-07T09:31:09;95470.41;;;18.38;47.83
52957;BME280;38819;42.692;23.342;2023-05-07T09:33:35;95475.56;;;18.51;47.81
52957;BME280;38819;42.692;23.342;2023-05-07T09:36:07;95474.34;;;18.61;48.24
52957;BME280;38819;42.692;23.342;2023-05-07T09:38:33;95465.47;;;18.77;48.08
52957;BME280;38819;42.692;23.342;2023-05-07T09:43:35;95469.31;;;18.84;44.12
52957;BME280;38819;42.692;23.342;2023-05-07T09:46:07;95474.56;;;18.90;45.91
52957;BME280;38819;42.692;23.342;2023-05-07T09:48:37;95455.41;;;19.02;45.69
52957;BME280;38819;42.692;23.342;2023-05-07T09:51:10;95453.13;;;19.04;45.49
52957;BME280;38819;42.692;23.342;2023-05-07T09:53:39;95455.28;;;19.11;46.17
52957;BME280;38819;42.692;23.342;2023-05-07T09:56:06;95452.81;;;19.18;43.75
52957;BME280;38819;42.692;23.342;2023-05-07T09:58:33;95444.81;;;19.25;42.97
52957;BME280;38819;42.692;23.342;2023-05-07T10:01:02;95442.97;;;19.29;42.26
52957;BME280;38819;42.692;23.342;2023-05-07T10:03:29;95451.88;;;19.38;42.52
52957;BME280;38819;42.692;23.342;2023-05-07T10:05:58;95447.41;;;19.46;42.00
52957;BME280;38819;42.692;23.342;2023-05-07T10:08:24;95456.78;;;19.45;41.77
52957;BME280;38819;42.692;23.342;2023-05-07T10:10:49;95442.63;;;19.43;41.36
52957;BME280;38819;42.692;23.342;2023-05-07T10:13:17;95437.50;;;19.41;41.90
52957;BME280;38819;42.692;23.342;2023-05-07T10:15:42;95440.78;;;19.47;42.21
52957;BME280;38819;42.692;23.342;2023-05-07T10:18:08;95430.88;;;19.55;42.20
52957;BME280;38819;42.692;23.342;2023-05-07T10:20:34;95436.19;;;19.63;39.95
52957;BME280;38819;42.692;23.342;2023-05-07T10:23:04;95432.97;;;19.74;40.00
52957;BME280;38819;42.692;23.342;2023-05-07T10:25:30;95428.28;;;19.74;40.37
52957;BME280;38819;42.692;23.342;2023-05-07T10:28:08;95429.69;;;19.80;40.00
52957;BME280;38819;42.692;23.342;2023-05-07T10:33:06;95425.41;;;19.95;40.58
52957;BME280;38819;42.692;23.342;2023-05-07T10:35:41;95417.09;;;19.92;39.28
52957;BME280;38819;42.692;23.342;2023-05-07T10:38:08;95416.66;;;19.90;39.48
52957;BME280;38819;42.692;23.342;2023-05-07T10:40:33;95424.53;;;19.91;39.61
52957;BME280;38819;42.692;23.342;2023-05-07T10:43:00;95410.00;;;20.03;38.90
52957;BME280;38819;42.692;23.342;2023-05-07T10:45:26;95407.88;;;20.12;39.23
52957;BME280;38819;42.692;23.342;2023-05-07T10:48:11;95414.16;;;20.13;39.35
52957;BME280;38819;42.692;23.342;2023-05-07T10:50:38;95409.94;;;20.15;39.43
52957;BME280;38819;42.692;23.342;2023-05-07T10:55:47;95400.06;;;20.27;39.79
52957;BME280;38819;42.692;23.342;2023-05-07T10:58:26;95396.97;;;20.28;39.66
52957;BME280;38819;42.692;23.342;2023-05-07T11:01:01;95395.34;;;20.27;39.39
52957;BME280;38819;42.692;23.342;2023-05-07T11:03:28;95395.88;;;20.33;39.61
52957;BME280;38819;42.692;23.342;2023-05-07T11:06:16;95393.88;;;20.30;39.09
52957;BME280;38819;42.692;23.342;2023-05-07T11:09:01;95399.97;;;20.39;39.64
52957;BME280;38819;42.692;23.342;2023-05-07T11:11:46;95400.88;;;20.43;37.75
52957;BME280;38819;42.692;23.342;2023-05-07T11:14:14;95391.06;;;20.42;38.14
52957;BME280;38819;42.692;23.342;2023-05-07T11:16:40;95395.06;;;20.45;37.27
52957;BME280;38819;42.692;23.342;2023-05-07T11:19:06;95393.53;;;20.47;36.69
52957;BME280;38819;42.692;23.342;2023-05-07T11:21:36;95390.09;;;20.50;36.83
52957;BME280;38819;42.692;23.342;2023-05-07T11:24:03;95381.69;;;20.59;37.85
52957;BME280;38819;42.692;23.342;2023-05-07T11:26:31;95388.44;;;20.62;37.17
52957;BME280;38819;42.692;23.342;2023-05-07T11:29:17;95380.41;;;20.69;38.47
52957;BME280;38819;42.692;23.342;2023-05-07T11:31:42;95377.75;;;20.72;37.75
52957;BME280;38819;42.692;23.342;2023-05-07T11:34:08;95380.22;;;20.78;37.18
52957;BME280;38819;42.692;23.342;2023-05-07T11:36:34;95383.50;;;20.83;36.68
52957;BME280;38819;42.692;23.342;2023-05-07T11:39:00;95384.75;;;20.86;36.72
52957;BME280;38819;42.692;23.342;2023-05-07T11:41:38;95377.22;;;20.99;36.46
52957;BME280;38819;42.692;23.342;2023-05-07T11:44:03;95366.66;;;21.01;37.26
52957;BME280;38819;42.692;23.342;2023-05-07T11:46:29;95374.56;;;21.02;36.75
52957;BME280;38819;42.692;23.342;2023-05-07T11:48:56;95369.56;;;21.08;36.15
52957;BME280;38819;42.692;23.342;2023-05-07T11:51:23;95374.00;;;21.13;35.91
52957;BME280;38819;42.692;23.342;2023-05-07T11:53:49;95371.25;;;21.13;36.10
52957;BME280;38819;42.692;23.342;2023-05-07T11:56:17;95365.31;;;21.10;35.16
52957;BME280;38819;42.692;23.342;2023-05-07T11:58:44;95369.41;;;21.17;35.37
52957;BME280;38819;42.692;23.342;2023-05-07T12:01:11;95375.88;;;21.08;35.36
52957;BME280;38819;42.692;23.342;2023-05-07T12:03:37;95366.13;;;21.11;35.91
52957;BME280;38819;42.692;23.342;2023-05-07T12:06:07;95359.91;;;21.14;36.27
52957;BME280;38819;42.692;23.342;2023-05-07T12:08:36;95351.47;;;21.23;36.54
52957;BME280;38819;42.692;23.342;2023-05-07T12:11:15;95349.69;;;21.31;36.41
52957;BME280;38819;42.692;23.342;2023-05-07T12:13:43;95353.38;;;21.38;35.12
52957;BME280;38819;42.692;23.342;2023-05-07T12:16:09;95337.00;;;21.42;34.55
52957;BME280;38819;42.692;23.342;2023-05-07T12:18:35;95344.72;;;21.36;34.18
52957;BME280;38819;42.692;23.342;2023-05-07T12:21:02;95350.56;;;21.35;35.08
52957;BME280;38819;42.692;23.342;2023-05-07T12:23:29;95343.56;;;21.37;34.59
52957;BME280;38819;42.692;23.342;2023-05-07T12:25:55;95331.03;;;21.40;34.42
52957;BME280;38819;42.692;23.342;2023-05-07T12:28:20;95332.38;;;21.46;33.22
52957;BME280;38819;42.692;23.342;2023-05-07T12:30:47;95329.97;;;21.44;33.06
52957;BME280;38819;42.692;23.342;2023-05-07T12:33:18;95323.34;;;21.45;32.09
52957;BME280;38819;42.692;23.342;2023-05-07T12:35:44;95318.38;;;21.51;32.35
52957;BME280;38819;42.692;23.342;2023-05-07T12:38:17;95326.19;;;21.49;31.82
52957;BME280;38819;42.692;23.342;2023-05-07T12:40:47;95312.16;;;21.54;32.06
52957;BME280;38819;42.692;23.342;2023-05-07T12:45:43;95314.13;;;21.54;32.43
52957;BME280;38819;42.692;23.342;2023-05-07T12:48:12;95308.16;;;21.52;32.19
52957;BME280;38819;42.692;23.342;2023-05-07T12:50:37;95297.34;;;21.59;32.49
52957;BME280;38819;42.692;23.342;2023-05-07T12:53:03;95303.63;;;21.59;33.08
52957;BME280;38819;42.692;23.342;2023-05-07T12:55:31;95294.22;;;21.60;33.58
52957;BME280;38819;42.692;23.342;2023-05-07T12:58:00;95289.59;;;21.64;33.56